createdAt,value
2022-08-03T00:01:04.779Z,22.25
2022-08-03T00:03:39.295Z,22.22
2022-08-03T00:06:40.344Z,22.13
2022-08-03T00:15:27.431Z,22.05
2022-08-03T00:24:45.135Z,21.85
2022-08-03T00:27:42.294Z,21.89
2022-08-03T00:30:21.320Z,21.89
2022-08-03T00:33:16.959Z,21.76
2022-08-03T00:36:16.684Z,21.75
2022-08-03T00:39:24.521Z,21.72
2022-08-03T00:42:04.078Z,21.70
2022-08-03T00:44:53.501Z,21.72
2022-08-03T00:47:38.311Z,21.64
2022-08-03T00:50:55.956Z,21.59
2022-08-03T00:53:22.318Z,21.60
2022-08-03T00:57:03.940Z,21.56
2022-08-03T01:02:42.410Z,21.51
2022-08-03T01:05:24.387Z,21.50
2022-08-03T01:08:13.154Z,21.43
2022-08-03T01:11:02.469Z,21.35
2022-08-03T01:14:17.882Z,21.35
2022-08-03T01:16:52.033Z,21.41
2022-08-03T01:19:50.545Z,21.31
2022-08-03T01:23:10.237Z,21.26
2022-08-03T01:26:15.097Z,21.27
2022-08-03T01:29:22.172Z,21.18
2022-08-03T01:32:58.850Z,21.18
2022-08-03T01:35:24.858Z,21.17
2022-08-03T01:38:04.691Z,21.15
2022-08-03T01:40:43.242Z,21.09
2022-08-03T01:44:26.926Z,20.97
2022-08-03T01:46:36.360Z,21.00
2022-08-03T01:49:17.541Z,21.02
2022-08-03T01:52:10.529Z,20.96
2022-08-03T01:54:57.251Z,20.95
2022-08-03T01:57:32.890Z,20.88
2022-08-03T02:00:23.550Z,20.87
2022-08-03T02:03:01.816Z,20.85
2022-08-03T02:05:46.200Z,20.77
2022-08-03T02:08:40.313Z,20.81
2022-08-03T02:11:16.922Z,20.75
2022-08-03T02:14:00.708Z,20.73
2022-08-03T02:16:52.219Z,20.71
2022-08-03T02:19:25.024Z,20.72
2022-08-03T02:22:14.591Z,20.66
2022-08-03T02:24:58.933Z,20.65
2022-08-03T02:27:43.195Z,20.60
2022-08-03T02:30:19.653Z,20.58
2022-08-03T02:33:00.090Z,20.54
2022-08-03T02:35:41.368Z,20.49
2022-08-03T02:38:31.054Z,20.49
2022-08-03T02:41:14.290Z,20.41
2022-08-03T02:44:06.616Z,20.47
2022-08-03T02:46:44.815Z,20.42
2022-08-03T02:49:49.530Z,20.43
2022-08-03T02:52:21.193Z,20.38
2022-08-03T02:55:03.726Z,20.39
2022-08-03T02:57:45.039Z,20.33
2022-08-03T03:00:49.903Z,20.30
2022-08-03T03:03:39.984Z,20.28
2022-08-03T03:06:33.760Z,20.26
2022-08-03T03:09:23.795Z,20.26
2022-08-03T03:12:19.944Z,20.17
2022-08-03T03:15:12.203Z,20.17
2022-08-03T03:17:50.119Z,20.18
2022-08-03T03:20:39.071Z,20.20
2022-08-03T03:23:15.462Z,20.11
2022-08-03T03:26:03.275Z,20.05
2022-08-03T03:28:51.303Z,19.95
2022-08-03T03:34:31.524Z,19.99
2022-08-03T03:37:07.465Z,20.07
2022-08-03T03:39:51.843Z,19.99
2022-08-03T03:42:43.807Z,19.89
2022-08-03T03:45:19.450Z,19.92
2022-08-03T03:47:55.210Z,19.84
2022-08-03T03:50:48.230Z,19.93
2022-08-03T03:53:34.810Z,19.83
2022-08-03T03:56:23.397Z,19.84
2022-08-03T03:59:06.086Z,19.81
2022-08-03T04:02:01.471Z,19.76
2022-08-03T04:04:58.021Z,19.76
2022-08-03T04:07:45.507Z,19.76
2022-08-03T04:10:39.423Z,19.67
2022-08-03T04:13:24.997Z,19.64
2022-08-03T04:16:17.149Z,19.72
2022-08-03T04:19:13.791Z,19.64
2022-08-03T04:22:11.288Z,19.73
2022-08-03T04:25:04.994Z,19.66
2022-08-03T04:28:29.285Z,19.59
2022-08-03T04:31:00.911Z,19.66
2022-08-03T04:33:38.604Z,19.66
2022-08-03T04:36:25.606Z,19.65
2022-08-03T04:39:13.371Z,19.72
2022-08-03T04:42:02.331Z,19.65
2022-08-03T04:45:04.956Z,19.67
2022-08-03T04:47:42.004Z,19.60
2022-08-03T04:50:26.233Z,19.64
2022-08-03T04:53:02.376Z,19.63
2022-08-03T04:55:52.472Z,19.88
2022-08-03T04:58:39.496Z,20.04
2022-08-03T05:01:16.779Z,20.09
2022-08-03T05:03:56.076Z,20.21
2022-08-03T05:06:35.970Z,20.34
2022-08-03T05:09:50.170Z,20.43
2022-08-03T05:12:32.355Z,20.42
2022-08-03T05:15:09.874Z,20.66
2022-08-03T05:17:54.739Z,21.00
2022-08-03T05:20:31.954Z,21.31
2022-08-03T05:23:15.451Z,21.65
2022-08-03T05:25:50.042Z,22.04
2022-08-03T05:28:19.410Z,22.63
2022-08-03T05:30:47.206Z,22.43
2022-08-03T05:33:15.075Z,22.93
2022-08-03T05:36:02.141Z,22.83
2022-08-03T05:38:34.744Z,23.13
2022-08-03T05:43:49.104Z,23.02
2022-08-03T05:46:17.085Z,23.57
2022-08-03T05:48:45.134Z,22.61
2022-08-03T05:51:13.546Z,23.10
2022-08-03T05:53:41.942Z,22.31
2022-08-03T05:56:13.874Z,22.53
2022-08-03T05:58:42.953Z,22.51
2022-08-03T06:01:12.009Z,21.80
2022-08-03T06:03:39.734Z,22.58
2022-08-03T06:06:07.521Z,22.26
2022-08-03T06:08:35.458Z,22.22
2022-08-03T06:11:03.495Z,22.22
2022-08-03T06:13:31.189Z,22.09
2022-08-03T06:15:58.872Z,22.12
2022-08-03T06:18:27.836Z,21.98
2022-08-03T06:20:55.857Z,21.75
2022-08-03T06:23:54.683Z,21.67
2022-08-03T06:26:16.561Z,22.02
2022-08-03T06:28:51.587Z,22.11
2022-08-03T06:31:22.735Z,22.15
2022-08-03T06:34:33.833Z,22.17
2022-08-03T06:37:19.073Z,22.45
2022-08-03T06:39:58.255Z,22.32
2022-08-03T06:42:25.885Z,22.30
2022-08-03T06:44:53.792Z,22.09
2022-08-03T06:47:21.574Z,22.16
2022-08-03T06:50:12.755Z,22.51
2022-08-03T06:52:44.284Z,22.32
2022-08-03T06:55:13.352Z,22.38
2022-08-03T06:57:41.001Z,22.67
2022-08-03T07:00:12.379Z,22.36
2022-08-03T07:02:49.238Z,22.77
2022-08-03T07:05:22.506Z,22.73
2022-08-03T07:11:02.893Z,23.15
2022-08-03T07:13:34.432Z,22.53
2022-08-03T07:16:02.204Z,23.28
2022-08-03T07:18:30.373Z,23.39
2022-08-03T07:21:19.920Z,22.85
2022-08-03T07:24:13.992Z,23.16
2022-08-03T07:27:16.437Z,23.02
2022-08-03T07:33:24.946Z,23.78
2022-08-03T07:35:59.890Z,23.22
2022-08-03T07:38:30.118Z,23.77
2022-08-03T07:40:58.002Z,23.98
2022-08-03T07:43:25.744Z,24.37
2022-08-03T07:45:53.641Z,23.62
2022-08-03T07:48:21.541Z,24.44
2022-08-03T07:50:49.633Z,24.05
2022-08-03T07:53:17.863Z,24.32
2022-08-03T07:55:47.162Z,24.22
2022-08-03T07:58:22.054Z,24.15
2022-08-03T08:00:53.402Z,23.68
2022-08-03T08:03:26.639Z,24.70
2022-08-03T08:05:54.911Z,23.90
2022-08-03T08:08:22.780Z,24.70
2022-08-03T08:10:58.450Z,24.71
2022-08-03T08:13:28.936Z,25.54
2022-08-03T08:15:56.710Z,25.81
2022-08-03T08:18:24.989Z,25.56
2022-08-03T08:20:53.299Z,25.39
2022-08-03T08:23:41.533Z,25.68
2022-08-03T08:26:19.943Z,25.58
2022-08-03T08:28:48.174Z,25.80
2022-08-03T08:31:16.126Z,26.27
2022-08-03T08:36:32.668Z,26.60
2022-08-03T08:39:00.964Z,26.03
2022-08-03T08:41:33.685Z,26.61
2022-08-03T08:44:01.809Z,25.44
2022-08-03T08:46:33.272Z,26.85
2022-08-03T08:49:04.974Z,25.84
2022-08-03T08:51:54.979Z,26.26
2022-08-03T08:54:26.952Z,26.45
2022-08-03T08:56:59.267Z,25.99
2022-08-03T08:59:27.906Z,26.68
2022-08-03T09:02:15.782Z,26.35
2022-08-03T09:04:45.658Z,26.34
2022-08-03T09:07:19.942Z,26.16
2022-08-03T09:10:11.418Z,26.05
2022-08-03T09:12:42.615Z,26.16
2022-08-03T09:15:21.785Z,26.22
2022-08-03T09:17:51.404Z,26.41
2022-08-03T09:20:20.454Z,26.55
2022-08-03T09:22:59.681Z,26.72
2022-08-03T09:25:36.571Z,27.03
2022-08-03T09:28:10.766Z,27.86
2022-08-03T09:30:40.049Z,27.24
2022-08-03T09:33:09.639Z,27.35
2022-08-03T09:35:58.833Z,27.05
2022-08-03T09:38:27.448Z,27.93
2022-08-03T09:41:00.295Z,27.89
2022-08-03T09:43:30.210Z,27.69
2022-08-03T09:46:04.808Z,27.25
2022-08-03T09:48:38.458Z,27.80
2022-08-03T09:51:13.240Z,27.31
2022-08-03T09:54:00.234Z,27.65
2022-08-03T09:56:43.059Z,28.31
2022-08-03T09:59:13.495Z,28.41
2022-08-03T10:01:44.320Z,28.16
2022-08-03T10:04:17.030Z,27.88
2022-08-03T10:07:03.830Z,27.74
2022-08-03T10:09:31.460Z,27.82
2022-08-03T10:12:07.790Z,28.21
2022-08-03T10:14:38.777Z,27.98
2022-08-03T10:17:06.746Z,27.73
2022-08-03T10:19:34.765Z,27.77
2022-08-03T10:22:04.913Z,28.45
2022-08-03T10:24:37.131Z,28.25
2022-08-03T10:27:07.196Z,29.04
2022-08-03T10:29:39.492Z,28.28
2022-08-03T10:32:14.709Z,27.84
2022-08-03T10:34:45.449Z,27.94
2022-08-03T10:37:16.504Z,28.58
2022-08-03T10:39:54.211Z,28.78
2022-08-03T10:42:24.810Z,28.47
2022-08-03T10:45:04.303Z,28.86
2022-08-03T10:47:33.661Z,28.80
2022-08-03T10:50:05.904Z,28.71
2022-08-03T10:52:36.058Z,29.22
2022-08-03T10:55:51.403Z,28.80
2022-08-03T10:58:53.402Z,29.37
2022-08-03T11:02:00.672Z,28.94
2022-08-03T11:04:38.852Z,29.14
2022-08-03T11:07:25.092Z,28.95
2022-08-03T11:09:53.949Z,29.91
2022-08-03T11:12:31.148Z,29.14
2022-08-03T11:15:07.253Z,29.48
2022-08-03T11:17:46.365Z,29.70
2022-08-03T11:20:54.360Z,28.90
2022-08-03T11:24:04.172Z,29.45
2022-08-03T11:26:29.619Z,29.97
2022-08-03T11:29:28.762Z,29.60
2022-08-03T11:31:56.750Z,29.64
2022-08-03T11:34:32.085Z,30.20
2022-08-03T11:37:28.715Z,29.72
2022-08-03T11:39:59.534Z,29.82
2022-08-03T11:42:45.314Z,29.66
2022-08-03T11:45:13.809Z,29.92
2022-08-03T11:47:50.122Z,29.74
2022-08-03T11:50:24.547Z,29.19
2022-08-03T11:52:52.514Z,29.69
2022-08-03T11:55:25.033Z,29.91
2022-08-03T11:58:58.316Z,29.76
2022-08-03T12:00:48.804Z,29.85
2022-08-03T12:03:18.044Z,30.33
2022-08-03T12:05:51.675Z,29.87
2022-08-03T12:08:31.051Z,30.98
2022-08-03T12:11:09.091Z,30.60
2022-08-03T12:14:45.436Z,29.99
2022-08-03T12:16:30.089Z,30.23
2022-08-03T12:18:58.878Z,30.07
2022-08-03T12:21:31.241Z,30.14
2022-08-03T12:24:00.470Z,30.11
2022-08-03T12:26:29.415Z,30.58
2022-08-03T12:28:57.219Z,30.65
2022-08-03T12:31:25.326Z,30.21
2022-08-03T12:33:58.866Z,30.25
2022-08-03T12:36:28.906Z,30.81
2022-08-03T12:38:57.976Z,30.28
2022-08-03T12:41:35.376Z,30.86
2022-08-03T12:44:04.429Z,30.62
2022-08-03T12:46:34.192Z,30.64
2022-08-03T12:49:11.143Z,30.73
2022-08-03T12:52:03.907Z,30.77
2022-08-03T12:54:36.019Z,30.36
2022-08-03T12:57:05.601Z,31.15
2022-08-03T12:59:40.653Z,31.14
2022-08-03T13:02:17.906Z,30.42
2022-08-03T13:05:10.749Z,30.44
2022-08-03T13:07:49.013Z,30.71
2022-08-03T13:10:29.218Z,30.83
2022-08-03T13:13:06.765Z,30.84
2022-08-03T13:15:48.046Z,31.17
2022-08-03T13:18:17.614Z,30.69
2022-08-03T13:21:20.318Z,30.78
2022-08-03T13:24:35.626Z,30.94
2022-08-03T13:27:59.402Z,30.87
2022-08-03T13:30:30.694Z,30.57
2022-08-03T13:33:00.656Z,30.94
2022-08-03T13:35:36.004Z,30.60
2022-08-03T13:38:45.552Z,30.22
2022-08-03T13:41:15.556Z,30.64
2022-08-03T13:43:47.215Z,31.11
2022-08-03T13:46:22.285Z,31.17
2022-08-03T13:48:49.939Z,30.73
2022-08-03T13:51:22.386Z,30.90
2022-08-03T13:54:01.385Z,31.56
2022-08-03T13:58:06.173Z,31.19
2022-08-03T14:00:27.134Z,31.02
2022-08-03T14:03:04.034Z,31.24
2022-08-03T14:05:37.891Z,31.45
2022-08-03T14:08:06.904Z,31.36
2022-08-03T14:14:24.733Z,31.23
2022-08-03T14:16:55.349Z,31.36
2022-08-03T14:19:54.759Z,31.50
2022-08-03T14:22:22.757Z,31.50
2022-08-03T14:24:50.346Z,31.21
2022-08-03T14:27:19.410Z,31.25
2022-08-03T14:29:49.172Z,31.64
2022-08-03T14:32:16.957Z,31.91
2022-08-03T14:34:47.296Z,31.83
2022-08-03T14:37:27.258Z,31.62
2022-08-03T14:40:58.429Z,31.70
2022-08-03T14:43:27.129Z,31.48
2022-08-03T14:46:10.689Z,31.47
2022-08-03T14:50:34.601Z,31.43
2022-08-03T14:51:25.960Z,31.91
2022-08-03T14:53:59.503Z,31.48
2022-08-03T14:56:27.229Z,31.41
2022-08-03T14:58:54.886Z,31.56
2022-08-03T15:02:03.144Z,31.49
2022-08-03T15:04:11.566Z,31.58
2022-08-03T15:06:39.291Z,31.41
2022-08-03T15:09:21.714Z,31.81
2022-08-03T15:11:51.104Z,31.57
2022-08-03T15:14:20.070Z,31.69
2022-08-03T15:16:57.471Z,31.61
2022-08-03T15:20:02.355Z,31.25
2022-08-03T15:22:34.858Z,31.46
2022-08-03T15:25:03.503Z,31.62
2022-08-03T15:27:31.138Z,31.78
2022-08-03T15:30:05.299Z,31.51
2022-08-03T15:32:38.701Z,31.70
2022-08-03T15:35:07.929Z,31.52
2022-08-03T15:37:35.840Z,31.45
2022-08-03T15:40:03.591Z,31.66
2022-08-03T15:42:32.178Z,31.61
2022-08-03T15:45:02.915Z,31.94
2022-08-03T15:47:30.583Z,31.65
2022-08-03T15:49:59.639Z,31.59
2022-08-03T15:52:27.806Z,31.56
2022-08-03T15:54:55.380Z,31.65
2022-08-03T15:57:23.473Z,31.55
2022-08-03T15:59:51.892Z,31.56
2022-08-03T16:02:19.879Z,31.48
2022-08-03T16:04:47.467Z,31.59
2022-08-03T16:07:36.767Z,31.45
2022-08-03T16:10:05.563Z,31.58
2022-08-03T16:12:42.809Z,31.31
2022-08-03T16:15:16.480Z,31.34
2022-08-03T16:17:44.482Z,31.36
2022-08-03T16:20:33.842Z,31.53
2022-08-03T16:23:08.446Z,31.55
2022-08-03T16:25:39.790Z,31.46
2022-08-03T16:28:13.424Z,31.43
2022-08-03T16:30:44.091Z,31.25
2022-08-03T16:33:16.871Z,31.38
2022-08-03T16:35:44.920Z,31.40
2022-08-03T16:38:18.867Z,31.34
2022-08-03T16:40:51.467Z,31.49
2022-08-03T16:43:20.073Z,31.40
2022-08-03T16:45:48.776Z,31.33
2022-08-03T16:48:17.223Z,31.25
2022-08-03T16:50:45.382Z,31.35
2022-08-03T16:53:16.477Z,31.31
2022-08-03T16:55:51.979Z,31.29
2022-08-03T16:58:24.487Z,31.18
2022-08-03T17:01:10.920Z,31.19
2022-08-03T17:04:02.816Z,31.05
2022-08-03T17:06:34.087Z,31.01
2022-08-03T17:09:08.882Z,31.14
2022-08-03T17:11:38.878Z,31.06
2022-08-03T17:14:12.089Z,31.12
2022-08-03T17:16:40.236Z,31.07
2022-08-03T17:19:23.155Z,30.90
2022-08-03T17:22:01.240Z,31.02
2022-08-03T17:24:33.957Z,30.99
2022-08-03T17:27:09.046Z,30.88
2022-08-03T17:29:48.687Z,30.93
2022-08-03T17:32:21.306Z,30.77
2022-08-03T17:34:49.893Z,30.83
2022-08-03T17:37:50.061Z,30.62
2022-08-03T17:40:08.405Z,30.51
2022-08-03T17:42:37.382Z,30.40
2022-08-03T17:45:06.565Z,30.32
2022-08-03T17:47:42.714Z,30.26
2022-08-03T17:50:23.958Z,30.26
2022-08-03T17:53:07.569Z,30.24
2022-08-03T17:55:59.093Z,30.09
2022-08-03T17:58:43.732Z,30.00
2022-08-03T18:02:00.018Z,29.87
2022-08-03T18:04:29.601Z,29.77
2022-08-03T18:07:00.461Z,29.72
2022-08-03T18:10:03.865Z,29.66
2022-08-03T18:12:57.561Z,29.59
2022-08-03T18:15:32.011Z,29.52
2022-08-03T18:18:32.381Z,29.41
2022-08-03T18:21:16.994Z,29.27
2022-08-03T18:23:50.952Z,29.14
2022-08-03T18:26:20.137Z,29.10
2022-08-03T18:28:56.927Z,29.04
2022-08-03T18:31:33.237Z,28.93
2022-08-03T18:34:32.885Z,28.84
2022-08-03T18:37:07.738Z,28.80
2022-08-03T18:39:50.295Z,28.79
2022-08-03T18:42:26.270Z,28.66
2022-08-03T18:44:57.019Z,28.62
2022-08-03T18:47:50.655Z,28.56
2022-08-03T18:50:32.134Z,28.53
2022-08-03T18:56:28.112Z,28.35
2022-08-03T18:59:16.828Z,28.34
2022-08-03T19:02:13.129Z,28.31
2022-08-03T19:04:54.860Z,28.06
2022-08-03T19:07:35.918Z,28.07
2022-08-03T19:10:09.483Z,27.97
2022-08-03T19:12:40.617Z,27.47
2022-08-03T19:15:18.631Z,27.93
2022-08-03T19:18:20.291Z,27.98
2022-08-03T19:20:55.843Z,27.82
2022-08-03T19:23:33.927Z,27.85
2022-08-03T19:26:30.655Z,27.81
2022-08-03T19:29:03.508Z,27.83
2022-08-03T19:31:36.541Z,27.78
2022-08-03T19:34:07.276Z,27.73
2022-08-03T19:36:51.842Z,27.70
2022-08-03T19:39:19.875Z,27.64
2022-08-03T19:45:11.423Z,27.54
2022-08-03T19:48:11.482Z,27.54
2022-08-03T19:50:51.358Z,27.54
2022-08-03T19:53:35.454Z,27.44
2022-08-03T19:56:12.764Z,27.27
2022-08-03T19:58:53.260Z,27.04
2022-08-03T20:01:28.242Z,26.80
2022-08-03T20:03:59.421Z,26.56
2022-08-03T20:06:33.717Z,27.11
2022-08-03T20:09:12.772Z,26.35
2022-08-03T20:11:55.742Z,26.98
2022-08-03T20:14:32.844Z,27.12
2022-08-03T20:17:01.194Z,26.72
2022-08-03T20:19:35.180Z,26.14
2022-08-03T20:22:14.312Z,26.31
2022-08-03T20:24:52.331Z,26.31
2022-08-03T20:27:30.444Z,26.40
2022-08-03T20:30:06.953Z,26.64
2022-08-03T20:32:52.308Z,26.00
2022-08-03T20:35:28.059Z,26.30
2022-08-03T20:38:00.457Z,26.58
2022-08-03T20:40:34.899Z,26.71
2022-08-03T20:43:06.051Z,26.28
2022-08-03T20:45:59.577Z,26.16
2022-08-03T20:48:30.531Z,26.43
2022-08-03T20:50:58.674Z,25.38
2022-08-03T20:53:57.465Z,25.86
2022-08-03T20:56:25.419Z,26.08
2022-08-03T20:58:56.226Z,26.20
2022-08-03T21:01:36.468Z,25.91
2022-08-03T21:04:11.281Z,26.00
2022-08-03T21:06:57.879Z,25.89
2022-08-03T21:09:43.093Z,25.20
2022-08-03T21:12:19.939Z,25.81
2022-08-03T21:13:09.041Z,28.33
2022-08-03T21:15:09.668Z,26.15
2022-08-03T21:18:09.638Z,25.76
2022-08-03T21:20:46.050Z,26.10
2022-08-03T21:23:39.899Z,25.99
2022-08-03T21:26:18.689Z,25.51
2022-08-03T21:29:00.649Z,25.37
2022-08-03T21:31:37.487Z,25.82
2022-08-03T21:34:09.529Z,25.97
2022-08-03T21:36:46.913Z,26.08
2022-08-03T21:39:19.376Z,25.68
2022-08-03T21:41:49.169Z,25.93
2022-08-03T21:44:33.959Z,25.85
2022-08-03T21:47:14.008Z,25.92
2022-08-03T21:50:06.954Z,25.94
2022-08-03T21:53:00.961Z,25.85
2022-08-03T21:55:36.244Z,25.88
2022-08-03T21:58:21.433Z,25.79
2022-08-03T22:00:56.400Z,25.38
2022-08-03T22:03:53.901Z,25.69
2022-08-03T22:06:33.675Z,25.67
2022-08-03T22:09:05.497Z,25.63
2022-08-03T22:11:37.397Z,25.35
2022-08-03T22:14:07.883Z,25.34
2022-08-03T22:16:39.503Z,25.51
2022-08-03T22:19:10.794Z,25.47
2022-08-03T22:21:47.689Z,25.48
2022-08-03T23:46:47.138Z,24.20
2022-08-03T23:50:01.037Z,24.33
2022-08-03T23:52:48.025Z,24.39
2022-08-03T23:55:51.079Z,24.28
2022-08-03T23:58:42.397Z,24.27
